createdAt,value
2017-10-21T00:00:06.042Z,20.86
2017-10-21T00:00:34.064Z,20.88
2017-10-21T00:01:01.970Z,20.88
2017-10-21T00:01:30.114Z,20.85
2017-10-21T00:01:58.143Z,20.77
2017-10-21T00:02:26.282Z,20.78
2017-10-21T00:02:54.316Z,20.83
2017-10-21T00:03:22.334Z,20.77
2017-10-21T00:03:50.364Z,20.78
2017-10-21T00:04:18.158Z,20.78
2017-10-21T00:04:46.300Z,20.8
2017-10-21T00:05:14.144Z,20.75
2017-10-21T00:05:42.154Z,20.82
2017-10-21T00:06:10.297Z,20.77
2017-10-21T00:06:38.338Z,20.71
2017-10-21T00:07:06.184Z,20.7
2017-10-21T00:07:34.128Z,20.67
2017-10-21T00:08:02.238Z,20.73
2017-10-21T00:08:30.254Z,20.75
2017-10-21T00:08:58.377Z,20.75
2017-10-21T00:09:26.616Z,20.75
2017-10-21T00:09:54.659Z,20.71
2017-10-21T00:10:22.766Z,20.71
2017-10-21T00:10:50.586Z,20.78
2017-10-21T00:11:18.609Z,20.68
2017-10-21T00:11:46.622Z,20.68
2017-10-21T00:12:14.665Z,20.78
2017-10-21T00:12:42.673Z,20.67
2017-10-21T00:13:10.798Z,20.75
2017-10-21T00:13:38.738Z,20.74
2017-10-21T00:14:06.689Z,20.73
2017-10-21T00:14:34.807Z,20.7
2017-10-21T00:15:03.029Z,20.75
2017-10-21T00:15:31.032Z,20.71
2017-10-21T00:15:58.954Z,20.77
2017-10-21T00:16:26.852Z,20.68
2017-10-21T00:16:54.963Z,20.8
2017-10-21T00:17:22.891Z,20.75
2017-10-21T00:17:51.019Z,20.73
2017-10-21T00:18:19.143Z,20.74
2017-10-21T00:18:47.161Z,20.83
2017-10-21T00:19:15.189Z,20.75
2017-10-21T00:19:43.318Z,20.73
2017-10-21T00:20:11.121Z,20.74
2017-10-21T00:20:39.235Z,20.75
2017-10-21T00:21:07.275Z,20.75
2017-10-21T00:21:35.405Z,20.74
2017-10-21T00:22:03.530Z,20.63
2017-10-21T00:22:31.564Z,20.59
2017-10-21T00:22:59.587Z,20.56
2017-10-21T00:23:27.534Z,20.56
2017-10-21T00:23:55.467Z,20.59
2017-10-21T00:24:23.614Z,20.6
2017-10-21T00:24:51.659Z,20.58
2017-10-21T00:25:19.694Z,20.59
2017-10-21T00:25:47.704Z,20.56
2017-10-21T00:26:15.528Z,20.56
2017-10-21T00:26:43.542Z,20.52
2017-10-21T00:27:11.650Z,20.46
2017-10-21T00:27:39.557Z,20.39
2017-10-21T00:28:07.475Z,20.5
2017-10-21T00:28:35.508Z,20.4
2017-10-21T00:29:03.610Z,20.4
2017-10-21T00:29:31.644Z,20.33
2017-10-21T00:29:59.497Z,20.27
2017-10-21T00:30:27.541Z,20.33
2017-10-21T00:30:55.648Z,20.24
2017-10-21T00:31:23.757Z,20.24
2017-10-21T00:31:51.778Z,20.27
2017-10-21T00:32:19.900Z,20.3
2017-10-21T00:32:47.940Z,20.29
2017-10-21T00:33:16.059Z,20.24
2017-10-21T00:33:44.088Z,20.22
2017-10-21T00:34:12.038Z,20.17
2017-10-21T00:34:40.070Z,20.34
2017-10-21T00:35:08.115Z,20.21
2017-10-21T00:35:36.032Z,20.19
2017-10-21T00:36:04.089Z,20.24
2017-10-21T00:36:32.203Z,20.24
2017-10-21T00:37:00.227Z,20.19
2017-10-21T00:37:28.107Z,20.3
2017-10-21T00:37:56.139Z,20.32
2017-10-21T00:38:24.282Z,20.34
2017-10-21T00:38:52.360Z,20.36
2017-10-21T00:39:20.391Z,20.3
2017-10-21T00:39:48.533Z,20.32
2017-10-21T00:40:16.642Z,20.48
2017-10-21T00:40:44.661Z,20.48
2017-10-21T00:41:12.687Z,20.46
2017-10-21T00:41:40.584Z,20.36
2017-10-21T00:42:08.401Z,20.49
2017-10-21T00:42:36.534Z,20.48
2017-10-21T00:43:04.540Z,20.46
2017-10-21T00:43:32.560Z,20.4
2017-10-21T00:44:00.596Z,20.29
2017-10-21T00:44:28.638Z,20.36
2017-10-21T00:44:56.727Z,20.33
2017-10-21T00:45:24.823Z,20.29
2017-10-21T00:45:52.862Z,20.34
2017-10-21T00:46:20.989Z,20.34
2017-10-21T00:46:49.007Z,20.33
2017-10-21T00:47:17.123Z,20.33
2017-10-21T00:47:45.154Z,20.21
2017-10-21T00:48:13.251Z,20.3
2017-10-21T00:48:41.377Z,20.3
2017-10-21T00:49:09.471Z,20.21
2017-10-21T00:49:37.553Z,20.19
2017-10-21T00:50:05.559Z,20.18
2017-10-21T00:50:33.595Z,20.21
2017-10-21T00:51:01.639Z,20.21
2017-10-21T00:51:29.651Z,20.18
2017-10-21T00:51:57.637Z,20.17
2017-10-21T00:52:25.740Z,20.15
2017-10-21T00:52:53.661Z,20.32
2017-10-21T00:53:21.783Z,20.26
2017-10-21T00:53:49.794Z,20.15
2017-10-21T00:54:17.796Z,20.27
2017-10-21T00:54:45.802Z,20.29
2017-10-21T00:55:13.642Z,20.22
2017-10-21T00:55:41.657Z,20.21
2017-10-21T00:56:09.786Z,20.27
2017-10-21T00:56:37.819Z,20.29
2017-10-21T00:57:05.842Z,20.34
2017-10-21T00:57:33.800Z,20.22
2017-10-21T00:58:01.800Z,20.36
2017-10-21T00:58:29.807Z,20.39
2017-10-21T00:58:57.825Z,20.27
2017-10-21T00:59:25.849Z,20.29
2017-10-21T00:59:53.975Z,20.29
2017-10-21T01:00:22.639Z,20.29
2017-10-21T01:00:50.667Z,20.32
2017-10-21T01:01:18.563Z,20.37
2017-10-21T01:01:46.581Z,20.37
2017-10-21T01:02:14.609Z,20.32
2017-10-21T01:02:42.722Z,20.27
2017-10-21T01:03:10.557Z,20.32
2017-10-21T01:03:38.663Z,20.36
2017-10-21T01:04:06.793Z,20.32
2017-10-21T01:04:34.716Z,20.34
2017-10-21T01:05:02.690Z,20.36
2017-10-21T01:05:30.707Z,20.36
2017-10-21T01:05:58.710Z,20.3
2017-10-21T01:06:26.549Z,20.36
2017-10-21T01:06:54.516Z,20.33
2017-10-21T01:07:22.517Z,20.32
2017-10-21T01:07:50.536Z,20.19
2017-10-21T01:08:18.540Z,20.21
2017-10-21T01:08:46.356Z,20.26
2017-10-21T01:09:14.515Z,20.26
2017-10-21T01:09:42.657Z,20.22
2017-10-21T01:10:10.574Z,20.24
2017-10-21T01:10:38.631Z,20.24
2017-10-21T01:11:06.886Z,20.12
2017-10-21T01:11:35.013Z,20.14
2017-10-21T01:12:03.155Z,20.14
2017-10-21T01:12:31.046Z,20.14
2017-10-21T01:12:59.034Z,20.14
2017-10-21T01:13:27.030Z,20.21
2017-10-21T01:13:55.132Z,20.22
2017-10-21T01:14:23.242Z,20.24
2017-10-21T01:14:51.271Z,20.22
2017-10-21T01:15:19.201Z,20.21
2017-10-21T01:15:47.223Z,20.24
2017-10-21T01:16:15.312Z,20.19
2017-10-21T01:16:43.458Z,20.22
2017-10-21T01:17:11.581Z,20.26
2017-10-21T01:17:39.510Z,20.22
2017-10-21T01:18:07.497Z,20.21
2017-10-21T01:18:35.543Z,20.18
2017-10-21T01:19:03.687Z,20.18
2017-10-21T01:19:31.619Z,20.26
2017-10-21T01:19:59.564Z,20.18
2017-10-21T01:20:27.599Z,20.22
2017-10-21T01:20:55.626Z,20.24
2017-10-21T01:21:23.732Z,20.19
2017-10-21T01:21:51.807Z,20.3
2017-10-21T01:22:19.909Z,20.36
2017-10-21T01:22:47.643Z,20.3
2017-10-21T01:23:15.666Z,20.34
2017-10-21T01:23:43.689Z,20.34
2017-10-21T01:24:11.635Z,20.34
2017-10-21T01:24:40.089Z,20.32
2017-10-21T01:25:08.274Z,20.22
2017-10-21T01:25:36.287Z,20.33
2017-10-21T01:26:04.411Z,20.21
2017-10-21T01:26:32.429Z,20.24
2017-10-21T01:27:00.443Z,20.27
2017-10-21T01:27:28.448Z,20.26
2017-10-21T01:27:56.445Z,20.19
2017-10-21T01:28:24.458Z,20.24
2017-10-21T01:28:52.378Z,20.15
2017-10-21T01:29:20.385Z,20.11
2017-10-21T01:29:48.258Z,20.08
2017-10-21T01:30:16.251Z,20.03
2017-10-21T01:30:44.363Z,20.04
2017-10-21T01:31:12.482Z,20.04
2017-10-21T01:31:40.502Z,20.14
2017-10-21T01:32:08.533Z,20.14
2017-10-21T01:32:36.374Z,20.17
2017-10-21T01:33:04.373Z,20.14
2017-10-21T01:33:32.376Z,20.12
2017-10-21T01:34:00.490Z,20.12
2017-10-21T01:34:28.492Z,20.19
2017-10-21T01:34:56.579Z,20.19
2017-10-21T01:35:24.598Z,20.17
2017-10-21T01:35:52.701Z,20.26
2017-10-21T01:36:20.716Z,20.26
2017-10-21T01:36:48.745Z,20.33
2017-10-21T01:37:16.870Z,20.22
2017-10-21T01:37:44.788Z,20.22
2017-10-21T01:38:12.812Z,20.24
2017-10-21T01:38:40.752Z,20.29
2017-10-21T01:39:08.794Z,20.29
2017-10-21T01:39:36.693Z,20.24
2017-10-21T01:40:04.820Z,20.22
2017-10-21T01:40:32.850Z,20.24
2017-10-21T01:41:00.880Z,20.21
2017-10-21T01:41:29.016Z,20.18
2017-10-21T01:41:57.033Z,20.14
2017-10-21T01:42:24.921Z,20.15
2017-10-21T01:42:52.920Z,20.18
2017-10-21T01:43:20.772Z,20.18
2017-10-21T01:43:48.698Z,20.08
2017-10-21T01:44:16.606Z,20.08
2017-10-21T01:44:44.737Z,20.04
2017-10-21T01:45:12.868Z,20.07
2017-10-21T01:45:40.886Z,20.02
2017-10-21T01:46:08.971Z,20.03
2017-10-21T01:46:37.033Z,20.03
2017-10-21T01:47:05.050Z,19.96
2017-10-21T01:47:33.061Z,19.97
2017-10-21T01:48:01.077Z,19.94
2017-10-21T01:48:29.072Z,19.96
2017-10-21T01:48:57.094Z,19.94
2017-10-21T01:49:25.029Z,19.9
2017-10-21T01:49:53.151Z,19.87
2017-10-21T01:50:21.105Z,19.82
2017-10-21T01:50:49.096Z,19.87
2017-10-21T01:51:17.012Z,19.85
2017-10-21T01:51:44.939Z,19.84
2017-10-21T01:52:12.963Z,19.9
2017-10-21T01:52:41.090Z,19.93
2017-10-21T01:53:09.116Z,19.93
2017-10-21T01:53:37.126Z,19.9
2017-10-21T01:54:05.032Z,19.87
2017-10-21T01:54:33.036Z,19.87
2017-10-21T01:55:01.187Z,20.02
2017-10-21T01:55:29.393Z,19.96
2017-10-21T01:55:57.511Z,19.9
2017-10-21T01:56:25.446Z,19.96
2017-10-21T01:56:53.559Z,19.97
2017-10-21T01:57:21.658Z,19.97
2017-10-21T01:57:49.592Z,19.9
2017-10-21T01:58:17.587Z,20
2017-10-21T01:58:45.487Z,20
2017-10-21T01:59:13.519Z,20.02
2017-10-21T01:59:41.450Z,19.93
2017-10-21T02:00:09.381Z,20.03
2017-10-21T02:00:37.269Z,20
2017-10-21T02:01:05.305Z,20
2017-10-21T02:01:33.207Z,20
2017-10-21T02:02:01.342Z,20.03
2017-10-21T02:02:29.443Z,20.07
2017-10-21T02:02:57.468Z,20.08
2017-10-21T02:03:25.396Z,20.03
2017-10-21T02:03:53.425Z,19.99
2017-10-21T02:04:21.538Z,20.1
2017-10-21T02:04:49.565Z,20.03
2017-10-21T02:05:17.587Z,20.08
2017-10-21T02:05:45.624Z,20.07
2017-10-21T02:06:13.738Z,20.04
2017-10-21T02:06:41.843Z,20.08
2017-10-21T02:07:09.956Z,20.08
2017-10-21T02:07:37.872Z,20.1
2017-10-21T02:08:05.818Z,19.99
2017-10-21T02:08:33.835Z,20.07
2017-10-21T02:09:01.846Z,20.04
2017-10-21T02:09:29.661Z,20.03
2017-10-21T02:09:57.798Z,20.08
2017-10-21T02:10:26.016Z,20
2017-10-21T02:10:54.030Z,20
2017-10-21T02:11:22.068Z,20.07
2017-10-21T02:11:49.989Z,20.04
2017-10-21T02:12:17.988Z,20.08
2017-10-21T02:12:46.287Z,20.08
2017-10-21T02:13:14.323Z,20.14
2017-10-21T02:13:42.327Z,20.08
2017-10-21T02:14:10.355Z,20.1
2017-10-21T02:14:38.380Z,20.15
2017-10-21T02:15:06.458Z,20.24
2017-10-21T02:15:34.798Z,20.29
2017-10-21T02:16:02.932Z,20.27
2017-10-21T02:16:31.052Z,20.18
2017-10-21T02:16:58.874Z,20.22
2017-10-21T02:17:26.983Z,20.18
2017-10-21T02:17:54.890Z,20.27
2017-10-21T02:18:22.923Z,20.34
2017-10-21T02:18:50.948Z,20.32
2017-10-21T02:19:19.056Z,20.36
2017-10-21T02:19:47.059Z,20.21
2017-10-21T02:20:15.186Z,20.22
2017-10-21T02:20:43.273Z,20.19
2017-10-21T02:21:11.400Z,20.24
2017-10-21T02:21:39.516Z,20.17
2017-10-21T02:22:07.421Z,20.19
2017-10-21T02:22:35.244Z,20.19
2017-10-21T02:23:03.270Z,20.21
2017-10-21T02:23:31.196Z,20.22
2017-10-21T02:23:59.128Z,20.24
2017-10-21T02:24:27.229Z,20.17
2017-10-21T02:24:55.356Z,20.22
2017-10-21T02:25:23.489Z,20.24
2017-10-21T02:25:51.745Z,20.22
2017-10-21T02:26:19.659Z,20.19
2017-10-21T02:26:47.765Z,20.24
2017-10-21T02:27:15.800Z,20.3
2017-10-21T02:27:43.843Z,20.27
2017-10-21T02:28:11.879Z,20.36
2017-10-21T02:28:40.052Z,20.34
2017-10-21T02:29:07.962Z,20.33
2017-10-21T02:29:36.001Z,20.3
2017-10-21T02:30:03.938Z,20.24
2017-10-21T02:30:31.952Z,20.24
2017-10-21T02:30:59.950Z,20.26
2017-10-21T02:31:28.068Z,20.19
2017-10-21T02:31:56.096Z,20.18
2017-10-21T02:32:24.228Z,20.18
2017-10-21T02:32:52.216Z,20.24
2017-10-21T02:33:20.231Z,20.17
2017-10-21T02:33:48.252Z,20.14
2017-10-21T02:34:16.267Z,20.18
2017-10-21T02:34:44.378Z,20.15
2017-10-21T02:35:12.315Z,20.11
2017-10-21T02:35:40.542Z,20.18
2017-10-21T02:36:08.653Z,20.12
2017-10-21T02:36:36.738Z,20.18
2017-10-21T02:37:04.769Z,20.18
2017-10-21T02:37:32.820Z,20.19
2017-10-21T02:38:00.952Z,20.24
2017-10-21T02:38:28.841Z,20.18
2017-10-21T02:38:56.843Z,20.21
2017-10-21T02:39:24.877Z,20.14
2017-10-21T02:39:52.998Z,20.24
2017-10-21T02:40:20.992Z,20.17
2017-10-21T02:40:49.074Z,20.24
2017-10-21T02:41:17.070Z,20.18
2017-10-21T02:41:45.193Z,20.24
2017-10-21T02:42:13.208Z,20.26
2017-10-21T02:42:41.253Z,20.24
2017-10-21T02:43:09.181Z,20.18
2017-10-21T02:43:37.299Z,20.19
2017-10-21T02:44:05.417Z,20.17
2017-10-21T02:44:33.428Z,20.24
2017-10-21T02:45:01.369Z,20.21
2017-10-21T02:45:29.515Z,20.24
2017-10-21T02:45:57.552Z,20.26
2017-10-21T02:46:25.655Z,20.21
2017-10-21T02:46:53.744Z,20.24
2017-10-21T02:47:21.838Z,20.15
2017-10-21T02:47:49.975Z,20.21
2017-10-21T02:48:17.896Z,20.27
2017-10-21T02:48:45.809Z,20.18
2017-10-21T02:49:13.934Z,20.08
2017-10-21T02:49:41.955Z,20.03
2017-10-21T02:50:09.853Z,20.11
2017-10-21T02:50:37.926Z,20.1
2017-10-21T02:51:05.941Z,20.08
2017-10-21T02:51:33.868Z,20.08
2017-10-21T02:52:01.871Z,20.08
2017-10-21T02:52:29.976Z,20.08
2017-10-21T02:52:58.006Z,20.11
2017-10-21T02:53:26.010Z,20.1
2017-10-21T02:53:53.922Z,20.08
2017-10-21T02:54:21.954Z,20.11
2017-10-21T02:54:50.056Z,20.15
2017-10-21T02:55:18.041Z,20.11
2017-10-21T02:55:46.320Z,20.12
2017-10-21T02:56:14.411Z,20.07
2017-10-21T02:56:42.543Z,20.08
2017-10-21T02:57:10.685Z,20.15
2017-10-21T02:57:38.708Z,20.15
2017-10-21T02:58:06.644Z,20.14
2017-10-21T02:58:34.687Z,20.17
2017-10-21T02:59:02.700Z,20.18
2017-10-21T02:59:30.823Z,20.17
2017-10-21T02:59:58.958Z,20.18
2017-10-21T03:00:26.783Z,20.17
2017-10-21T03:00:54.885Z,20.12
2017-10-21T03:01:22.915Z,20.08
2017-10-21T03:01:51.029Z,20.18
2017-10-21T03:02:19.149Z,20.03
2017-10-21T03:02:47.171Z,20.12
2017-10-21T03:03:15.107Z,20.1
2017-10-21T03:03:43.231Z,20.14
2017-10-21T03:04:11.216Z,20.11
2017-10-21T03:04:39.110Z,20.12
2017-10-21T03:05:07.140Z,20.18
2017-10-21T03:05:35.261Z,20.24
2017-10-21T03:06:03.184Z,20.19
2017-10-21T03:06:31.214Z,20.22
2017-10-21T03:06:58.931Z,20.24
2017-10-21T03:07:26.936Z,20.21
2017-10-21T03:07:54.840Z,20.21
2017-10-21T03:08:22.976Z,20.26
2017-10-21T03:08:51.090Z,20.19
2017-10-21T03:09:19.078Z,20.21
2017-10-21T03:09:47.119Z,20.18
2017-10-21T03:10:15.245Z,20.32
2017-10-21T03:10:43.278Z,20.24
2017-10-21T03:11:11.290Z,20.32
2017-10-21T03:11:39.295Z,20.32
2017-10-21T03:12:07.302Z,20.3
2017-10-21T03:12:35.402Z,20.33
2017-10-21T03:13:03.306Z,20.3
2017-10-21T03:13:31.432Z,20.32
2017-10-21T03:13:59.444Z,20.29
2017-10-21T03:14:27.375Z,20.34
2017-10-21T03:14:55.514Z,20.3
2017-10-21T03:15:23.642Z,20.32
2017-10-21T03:15:51.548Z,20.18
2017-10-21T03:16:19.566Z,20.21
2017-10-21T03:16:47.578Z,20.22
2017-10-21T03:17:15.700Z,20.21
2017-10-21T03:17:43.611Z,20.26
2017-10-21T03:18:11.532Z,20.19
2017-10-21T03:18:39.642Z,20.17
2017-10-21T03:19:07.745Z,20.17
2017-10-21T03:19:35.754Z,20.17
2017-10-21T03:20:03.668Z,20.1
2017-10-21T03:20:31.789Z,20.07
2017-10-21T03:20:59.799Z,20.04
2017-10-21T03:21:27.585Z,20.03
2017-10-21T03:21:55.616Z,20.08
2017-10-21T03:22:23.644Z,20.03
2017-10-21T03:22:51.593Z,20.04
2017-10-21T03:23:19.613Z,20.02
2017-10-21T03:23:47.632Z,20.02
2017-10-21T03:24:15.620Z,20.04
2017-10-21T03:24:43.560Z,20.1
2017-10-21T03:25:11.683Z,20.03
2017-10-21T03:25:39.586Z,20.08
2017-10-21T03:26:07.699Z,20.11
2017-10-21T03:26:35.603Z,20.07
2017-10-21T03:27:03.621Z,20.14
2017-10-21T03:27:31.534Z,20.11
2017-10-21T03:27:59.543Z,20.14
2017-10-21T03:28:27.653Z,20.12
2017-10-21T03:28:55.667Z,20.08
2017-10-21T03:29:23.569Z,20.11
2017-10-21T03:29:51.598Z,20.14
2017-10-21T03:30:19.533Z,20.11
2017-10-21T03:30:47.446Z,20.11
2017-10-21T03:31:15.565Z,20.08
2017-10-21T03:31:43.678Z,20.07
2017-10-21T03:32:11.679Z,20.12
2017-10-21T03:32:39.683Z,20.1
2017-10-21T03:33:07.717Z,20.11
2017-10-21T03:33:35.637Z,20.14
2017-10-21T03:34:03.678Z,20.11
2017-10-21T03:34:31.715Z,20.08
2017-10-21T03:34:59.607Z,20.14
2017-10-21T03:35:27.719Z,20.15
2017-10-21T03:35:55.855Z,20.18
2017-10-21T03:36:23.967Z,20.19
2017-10-21T03:36:51.873Z,20.21
2017-10-21T03:37:19.987Z,20.21
2017-10-21T03:37:48.132Z,20.17
2017-10-21T03:38:16.153Z,20.21
2017-10-21T03:38:44.266Z,20.18
2017-10-21T03:39:12.301Z,20.17
2017-10-21T03:39:40.418Z,20.19
2017-10-21T03:40:08.351Z,20.21
2017-10-21T03:40:36.502Z,20.19
2017-10-21T03:41:04.417Z,20.29
2017-10-21T03:41:32.578Z,20.17
2017-10-21T03:42:00.495Z,20.19
2017-10-21T03:42:28.651Z,20.21
2017-10-21T03:42:56.669Z,20.21
2017-10-21T03:43:24.585Z,20.22
2017-10-21T03:43:52.581Z,20.18
2017-10-21T03:44:20.568Z,20.26
2017-10-21T03:44:48.586Z,20.3
2017-10-21T03:45:16.643Z,20.29
2017-10-21T03:45:44.548Z,20.27
2017-10-21T03:46:12.670Z,20.33
2017-10-21T03:46:40.758Z,20.29
2017-10-21T03:47:08.814Z,20.27
2017-10-21T03:47:36.735Z,20.34
2017-10-21T03:48:04.629Z,20.33
2017-10-21T03:48:32.334Z,20.33
2017-10-21T03:49:00.265Z,20.33
2017-10-21T03:49:28.269Z,20.34
2017-10-21T03:49:56.281Z,20.36
2017-10-21T03:50:24.415Z,20.34
2017-10-21T03:50:52.250Z,20.36
2017-10-21T03:51:20.417Z,20.33
2017-10-21T03:51:48.506Z,20.36
2017-10-21T03:52:16.504Z,20.32
2017-10-21T03:52:44.636Z,20.34
2017-10-21T03:53:12.772Z,20.3
2017-10-21T03:53:40.811Z,20.26
2017-10-21T03:54:08.725Z,20.33
2017-10-21T03:54:36.456Z,20.33
2017-10-21T03:55:04.552Z,20.32
2017-10-21T03:55:32.560Z,20.32
2017-10-21T03:56:00.503Z,20.33
2017-10-21T03:56:28.655Z,20.21
2017-10-21T03:56:56.467Z,20.3
2017-10-21T03:57:24.594Z,20.3
2017-10-21T03:57:52.715Z,20.33
2017-10-21T03:58:20.848Z,20.34
2017-10-21T03:58:48.833Z,20.22
2017-10-21T03:59:16.968Z,20.32
2017-10-21T03:59:44.856Z,20.33
2017-10-21T04:00:12.855Z,20.3
2017-10-21T04:00:40.962Z,20.26
2017-10-21T04:01:08.946Z,20.34
2017-10-21T04:01:37.049Z,20.32
2017-10-21T04:02:05.177Z,20.29
2017-10-21T04:02:33.187Z,20.3
2017-10-21T04:03:01.122Z,20.18
2017-10-21T04:03:29.128Z,20.17
2017-10-21T04:03:57.045Z,20.27
2017-10-21T04:04:25.046Z,20.19
2017-10-21T04:04:53.041Z,20.17
2017-10-21T04:05:21.034Z,20.18
2017-10-21T04:05:49.019Z,20.11
2017-10-21T04:06:17.134Z,20.18
2017-10-21T04:06:44.907Z,20.15
2017-10-21T04:07:13.033Z,20.1
2017-10-21T04:07:41.166Z,20.14
2017-10-21T04:08:09.162Z,20.1
2017-10-21T04:08:37.306Z,20.04
2017-10-21T04:09:05.294Z,20.11
2017-10-21T04:09:33.229Z,20.08
2017-10-21T04:10:01.162Z,20.08
2017-10-21T04:10:29.258Z,20.12
2017-10-21T04:10:57.393Z,20.11
2017-10-21T04:11:25.510Z,20.07
2017-10-21T04:11:53.537Z,20.11
2017-10-21T04:12:21.441Z,20.08
2017-10-21T04:12:49.571Z,20.1
2017-10-21T04:13:18.294Z,20.04
2017-10-21T04:13:46.312Z,20.04
2017-10-21T04:14:14.236Z,20.1
2017-10-21T04:14:42.132Z,19.99
2017-10-21T04:15:10.169Z,20.07
2017-10-21T04:15:38.194Z,20
2017-10-21T04:16:06.292Z,19.96
2017-10-21T04:16:34.331Z,19.92
2017-10-21T04:17:02.236Z,19.87
2017-10-21T04:17:30.255Z,19.87
2017-10-21T04:17:58.268Z,19.84
2017-10-21T04:18:26.386Z,19.9
2017-10-21T04:18:54.207Z,19.87
2017-10-21T04:19:22.213Z,19.87
2017-10-21T04:19:50.223Z,19.87
2017-10-21T04:20:18.346Z,19.79
2017-10-21T04:20:46.354Z,19.87
2017-10-21T04:21:14.376Z,19.85
2017-10-21T04:21:42.580Z,19.89
2017-10-21T04:22:10.617Z,19.92
2017-10-21T04:22:38.744Z,19.93
2017-10-21T04:23:06.858Z,19.89
2017-10-21T04:23:34.967Z,19.84
2017-10-21T04:24:02.885Z,19.85
2017-10-21T04:24:30.994Z,19.85
2017-10-21T04:24:59.033Z,19.84
2017-10-21T04:25:27.143Z,19.85
2017-10-21T04:25:55.183Z,19.84
2017-10-21T04:26:23.304Z,19.85
2017-10-21T04:26:51.552Z,19.82
2017-10-21T04:27:19.360Z,19.79
2017-10-21T04:27:47.457Z,19.79
2017-10-21T04:28:15.483Z,19.81
2017-10-21T04:28:43.501Z,19.79
2017-10-21T04:29:11.411Z,19.85
2017-10-21T04:29:39.421Z,19.81
2017-10-21T04:30:07.551Z,19.87
2017-10-21T04:30:35.658Z,19.84
2017-10-21T04:31:03.763Z,19.84
2017-10-21T04:31:31.871Z,19.79
2017-10-21T04:32:00.017Z,19.81
2017-10-21T04:32:28.155Z,19.79
2017-10-21T04:32:56.255Z,19.79
2017-10-21T04:33:24.190Z,19.81
2017-10-21T04:33:52.122Z,19.84
2017-10-21T04:34:20.106Z,19.87
2017-10-21T04:34:48.029Z,19.81
2017-10-21T04:35:15.948Z,19.81
2017-10-21T04:35:43.969Z,19.78
2017-10-21T04:36:12.091Z,19.85
2017-10-21T04:36:40.117Z,19.84
2017-10-21T04:37:08.051Z,19.87
2017-10-21T04:37:36.171Z,19.87
2017-10-21T04:38:04.279Z,19.85
2017-10-21T04:38:32.369Z,19.89
2017-10-21T04:39:00.197Z,19.87
2017-10-21T04:39:28.318Z,19.79
2017-10-21T04:39:56.443Z,19.89
2017-10-21T04:40:24.561Z,19.89
2017-10-21T04:40:52.669Z,19.87
2017-10-21T04:41:20.787Z,19.84
2017-10-21T04:41:49.009Z,19.82
2017-10-21T04:42:17.094Z,19.84
2017-10-21T04:42:45.089Z,19.85
2017-10-21T04:43:13.034Z,19.82
2017-10-21T04:43:41.055Z,19.84
2017-10-21T04:44:09.185Z,19.84
2017-10-21T04:44:37.132Z,19.84
2017-10-21T04:45:05.052Z,19.78
2017-10-21T04:45:32.937Z,19.85
2017-10-21T04:46:01.050Z,19.82
2017-10-21T04:46:28.876Z,19.85
2017-10-21T04:46:56.990Z,19.84
2017-10-21T04:47:25.024Z,19.84
2017-10-21T04:47:53.025Z,19.85
2017-10-21T04:48:21.144Z,19.82
2017-10-21T04:48:49.286Z,19.89
2017-10-21T04:49:17.195Z,19.84
2017-10-21T04:49:45.135Z,19.87
2017-10-21T04:50:13.249Z,19.82
2017-10-21T04:50:41.261Z,19.84
2017-10-21T04:51:09.301Z,19.85
2017-10-21T04:51:37.310Z,19.81
2017-10-21T04:52:05.410Z,19.82
2017-10-21T04:52:33.531Z,19.82
2017-10-21T04:53:01.547Z,19.82
2017-10-21T04:53:29.471Z,19.66
2017-10-21T04:53:57.488Z,19.72
2017-10-21T04:54:25.391Z,19.67
2017-10-21T04:54:53.415Z,19.74
2017-10-21T04:55:21.497Z,19.71
2017-10-21T04:55:49.281Z,19.71
2017-10-21T04:56:17.369Z,19.71
2017-10-21T04:56:45.290Z,19.71
2017-10-21T04:57:13.482Z,19.71
2017-10-21T04:57:41.416Z,19.74
2017-10-21T04:58:09.326Z,19.84
2017-10-21T04:58:37.329Z,19.82
2017-10-21T04:59:05.348Z,19.81
2017-10-21T04:59:33.337Z,19.78
2017-10-21T05:00:01.162Z,19.79
2017-10-21T05:00:29.298Z,19.79
2017-10-21T05:00:57.316Z,19.79
2017-10-21T05:01:25.245Z,19.79
2017-10-21T05:01:53.167Z,19.84
2017-10-21T05:02:21.304Z,19.85
2017-10-21T05:02:49.424Z,19.78
2017-10-21T05:03:17.382Z,19.75
2017-10-21T05:03:45.362Z,19.78
2017-10-21T05:04:13.359Z,19.77
2017-10-21T05:04:41.359Z,19.79
2017-10-21T05:05:09.480Z,19.84
2017-10-21T05:05:37.559Z,19.81
2017-10-21T05:06:05.627Z,19.85
2017-10-21T05:06:33.743Z,19.72
2017-10-21T05:07:01.857Z,19.82
2017-10-21T05:07:29.978Z,19.79
2017-10-21T05:07:57.990Z,19.81
2017-10-21T05:08:26.008Z,19.84
2017-10-21T05:08:54.007Z,19.78
2017-10-21T05:09:22.115Z,19.81
2017-10-21T05:09:50.159Z,19.9
2017-10-21T05:10:18.192Z,19.84
2017-10-21T05:10:46.099Z,19.81
2017-10-21T05:11:14.216Z,19.82
2017-10-21T05:11:42.364Z,19.82
2017-10-21T05:12:10.547Z,19.89
2017-10-21T05:12:38.573Z,19.89
2017-10-21T05:13:06.697Z,19.87
2017-10-21T05:13:34.579Z,19.85
2017-10-21T05:14:02.693Z,19.82
2017-10-21T05:14:30.514Z,19.82
2017-10-21T05:14:58.524Z,19.96
2017-10-21T05:15:26.422Z,19.89
2017-10-21T05:15:54.335Z,19.87
2017-10-21T05:16:22.373Z,19.92
2017-10-21T05:16:50.380Z,19.82
2017-10-21T05:17:18.401Z,19.82
2017-10-21T05:17:46.414Z,19.87
2017-10-21T05:18:14.524Z,19.85
2017-10-21T05:18:42.544Z,19.87
2017-10-21T05:19:10.659Z,19.94
2017-10-21T05:19:38.563Z,19.99
2017-10-21T05:20:06.391Z,19.99
2017-10-21T05:20:34.101Z,19.99
2017-10-21T05:21:02.102Z,19.93
2017-10-21T05:21:30.098Z,19.96
2017-10-21T05:21:58.112Z,20
2017-10-21T05:22:26.009Z,19.94
2017-10-21T05:22:54.034Z,20
2017-10-21T05:23:21.944Z,20
2017-10-21T05:23:49.733Z,19.94
2017-10-21T05:24:17.827Z,20
2017-10-21T05:24:45.813Z,19.94
2017-10-21T05:25:13.754Z,19.97
2017-10-21T05:25:41.694Z,19.99
2017-10-21T05:26:09.641Z,19.96
2017-10-21T05:26:37.693Z,19.9
2017-10-21T05:27:06.061Z,19.9
2017-10-21T05:27:34.195Z,19.97
2017-10-21T05:28:02.195Z,19.97
2017-10-21T05:28:30.208Z,19.97
2017-10-21T05:28:58.347Z,19.99
2017-10-21T05:29:26.345Z,19.97
2017-10-21T05:29:54.271Z,19.96
2017-10-21T05:30:22.194Z,20.03
2017-10-21T05:30:50.306Z,19.96
2017-10-21T05:31:18.206Z,19.96
2017-10-21T05:31:46.228Z,19.94
2017-10-21T05:32:14.235Z,19.93
2017-10-21T05:32:42.344Z,19.99
2017-10-21T05:33:10.263Z,19.99
2017-10-21T05:33:38.361Z,19.92
2017-10-21T05:34:06.311Z,19.89
2017-10-21T05:34:34.127Z,19.94
2017-10-21T05:35:02.157Z,19.97
2017-10-21T05:35:30.193Z,19.99
2017-10-21T05:35:58.205Z,19.97
2017-10-21T05:36:26.337Z,19.94
2017-10-21T05:36:54.443Z,19.97
2017-10-21T05:37:22.370Z,19.99
2017-10-21T05:37:50.451Z,20.03
2017-10-21T05:38:18.570Z,20
2017-10-21T05:38:46.588Z,20
2017-10-21T05:39:14.689Z,20
2017-10-21T05:39:42.596Z,20.07
2017-10-21T05:40:10.568Z,20.1
2017-10-21T05:40:38.596Z,20.08
2017-10-21T05:41:06.731Z,20.04
2017-10-21T05:41:34.866Z,20.04
2017-10-21T05:42:03.007Z,20.04
2017-10-21T05:42:31.164Z,20.1
2017-10-21T05:42:59.176Z,20.08
2017-10-21T05:43:27.200Z,20.11
2017-10-21T05:43:55.211Z,20.12
2017-10-21T05:44:23.271Z,20.11
2017-10-21T05:44:51.336Z,20.17
2017-10-21T05:45:19.447Z,20.14
2017-10-21T05:45:47.408Z,20.12
2017-10-21T05:46:15.487Z,20.15
2017-10-21T05:46:43.508Z,20.17
2017-10-21T05:47:11.435Z,20.24
2017-10-21T05:47:39.563Z,20.26
2017-10-21T05:48:07.470Z,20.32
2017-10-21T05:48:35.467Z,20.17
2017-10-21T05:49:03.445Z,20.21
2017-10-21T05:49:31.470Z,20.21
2017-10-21T05:49:59.488Z,20.19
2017-10-21T05:50:27.606Z,20.29
2017-10-21T05:50:55.709Z,20.21
2017-10-21T05:51:23.730Z,20.19
2017-10-21T05:51:51.849Z,20.21
2017-10-21T05:52:19.660Z,20.3
2017-10-21T05:52:47.665Z,20.21
2017-10-21T05:53:15.698Z,20.22
2017-10-21T05:53:43.503Z,20.21
2017-10-21T05:54:11.507Z,20.26
2017-10-21T05:54:39.552Z,20.22
2017-10-21T05:55:07.477Z,20.18
2017-10-21T05:55:35.484Z,20.33
2017-10-21T05:56:03.508Z,20.26
2017-10-21T05:56:31.548Z,20.32
2017-10-21T05:56:59.557Z,20.33
2017-10-21T05:57:27.815Z,20.3
2017-10-21T05:57:55.913Z,20.3
2017-10-21T05:58:23.819Z,20.29
2017-10-21T05:58:51.713Z,20.29
2017-10-21T05:59:19.811Z,20.33
2017-10-21T05:59:47.859Z,20.33
2017-10-21T06:00:15.796Z,20.34
2017-10-21T06:00:43.794Z,20.24
2017-10-21T06:01:11.719Z,20.29
2017-10-21T06:01:39.838Z,20.21
2017-10-21T06:02:07.981Z,20.14